Latest Coastal Weather Observations for St Helens

IDT60701

Issued at 4:12 pm EST Monday 20 May 2024 (issued every 10 minutes, with the page automatically refreshed every 10 minutes)

About coastal observations | Map of coastal stations | Coastal observations for TAS | Marine services | Other Formats
Station Details ID: 092120 Name: ST HELENS AERODROME Lat: -41.34 Lon: 148.28 Height: 48.0 m
Data from the previous 72 hours. | See also: Recent months at St Helens
Date/Time
EST
Wind Sea
Height
m
Swell Vis
km
Cloud Weather Temp
°C
Press
MSL
hPa
Rain since
9am
mm
Dir  Spd
kts
Gust
kts
Height
m
Period
s
Dir
20/04:00pm SSE 6 13 - - - - 10 Clear - 12.7 1026.9 0.0
20/03:30pm SSE 5 10 - - - - 10 - - 12.9 1026.7 0.0
20/03:00pm SSE 6 10 - - - - 10 - - 13.5 1026.4 0.0
20/02:30pm SSE 6 11 - - - - 10 - - 13.8 1026.3 0.0
20/02:00pm SE 6 11 - - - - 10 - - 13.9 1026.3 0.0
20/01:30pm SE 5 8 - - - - 10 - - 14.0 1026.3 0.0
20/01:00pm SSE 4 8 - - - - 10 - - 14.2 1026.4 0.0
20/12:30pm S 5 8 - - - - 10 - - 13.9 1026.8 0.0
20/12:00pm S 4 8 - - - - 10 - - 13.9 1026.9 0.0
20/11:30am S 5 9 - - - - 10 - - 13.4 1027.3 0.0
20/11:00am SSW 4 9 - - - - 10 - - 13.2 1027.2 0.0
20/10:30am SSW 2 7 - - - - 10 - - 12.4 1027.2 0.0
20/10:00am SSW 2 6 - - - - 10 - - 11.4 1027.2 0.0
20/09:30am NW 1 4 - - - - 10 - - 9.5 1027.0 0.0
20/09:00am NW 4 5 - - - - 10 - - 7.4 1026.8 0.0
20/08:30am NW 5 6 - - - - 10 - - 5.5 1026.6 0.0
20/08:00am NW 6 7 - - - - 10 - - 4.8 1026.2 0.0
20/07:30am NW 4 5 - - - - 10 - - 4.7 1025.9 0.0
20/07:00am NW 4 5 - - - - 10 - - 4.8 1025.5 0.0
20/06:30am NW 5 6 - - - - 10 - - 4.7 1025.0 0.0
20/06:00am SW 1 3 - - - - 10 - - 5.7 1024.7 0.0
20/05:30am W 3 4 - - - - 10 - - 6.1 1024.4 0.0
20/05:00am SW 1 4 - - - - 10 - - 7.2 1023.9 0.0
20/04:30am SSW 4 7 - - - - 10 - - 7.2 1023.5 0.0
20/04:00am SSW 4 5 - - - - 10 - - 7.5 1023.3 0.0
20/03:30am SSW 4 9 - - - - 10 - - 7.2 1023.2 0.0
20/03:00am SSW 4 8 - - - - 10 - - 7.4 1023.2 0.0
20/02:30am SSW 4 7 - - - - 10 - - 7.5 1023.2 0.0
20/02:00am SSW 3 6 - - - - 10 - - 7.1 1023.1 0.0
20/01:30am SSW 4 7 - - - - 10 - - 7.1 1022.9 0.0
20/01:00am SSW 3 4 - - - - 10 - - 5.9 1022.8 0.0
20/12:30am W 1 3 - - - - 10 - - 5.7 1022.8 0.0
20/12:00am WNW 1 4 - - - - 10 - - 5.7 1022.7 0.0
 
Date/Time
EST
Wind Sea
Height
m
Swell Vis
km
Cloud Weather Temp
°C
Press
MSL
hPa
Rain since
9am
mm
Dir  Spd
kts
Gust
kts
Height
m
Period
s
Dir
19/11:30pm SSW 2 4 - - - - 10 - - 6.4 1022.5 0.0
19/11:00pm WNW 2 6 - - - - 10 - - 6.1 1022.3 0.0
19/10:30pm NW 5 7 - - - - 10 - - 6.6 1022.2 0.0
19/10:00pm W 3 5 - - - - 10 - - 7.0 1021.9 0.0
19/09:30pm W 1 4 - - - - 10 - - 7.2 1021.7 0.0
19/09:00pm SSW 1 4 - - - - 10 - - 8.4 1021.3 0.0
19/08:30pm WNW 3 5 - - - - 10 - - 8.7 1020.9 0.0
19/08:00pm W 4 8 - - - - 10 - - 8.7 1020.5 0.0
19/07:30pm S 2 6 - - - - 10 - - 9.3 1020.1 0.0
19/07:00pm W 2 4 - - - - 10 - - 9.6 1019.8 0.0
19/06:30pm S 3 6 - - - - 10 - - 10.8 1019.5 0.0
19/06:00pm SSE 5 9 - - - - 10 - - 11.7 1018.8 0.0
19/05:30pm CALM 0 3 - - - - 10 Partly cloudy - 11.5 1018.5 0.0
19/05:00pm SSE 2 5 - - - - 10 Partly cloudy - 11.8 1018.1 0.0
19/04:30pm SE 3 6 - - - - 10 Partly cloudy - 12.4 1017.6 0.0
19/04:00pm SSE 5 9 - - - - 10 - - 13.5 1017.2 0.0
19/03:30pm SE 7 11 - - - - 10 - - 14.0 1016.8 0.0
19/03:00pm SSE 7 11 - - - - 10 - - 14.4 1016.5 0.0
19/02:30pm SE 6 10 - - - - 10 - - 15.0 1016.2 0.0
19/02:00pm SE 5 8 - - - - 10 - - 16.2 1016.1 0.0
19/01:30pm SSW 6 14 - - - - 10 Partly cloudy - 16.9 1016.1 0.0
19/01:00pm SW 6 11 - - - - 10 Partly cloudy - 16.5 1016.1 0.0
19/12:30pm SSW 5 11 - - - - 10 Partly cloudy - 16.7 1016.2 0.0
19/12:00pm SSW 7 14 - - - - 10 - - 15.8 1016.4 0.0
19/11:30am SSW 6 13 - - - - 10 - - 15.6 1016.6 0.0
19/11:00am SSW 7 13 - - - - 10 - - 15.6 1016.7 0.0
19/10:30am SSW 5 11 - - - - 10 Partly cloudy - 15.0 1016.8 0.0
19/10:00am W 3 5 - - - - 10 - - 14.2 1016.6 0.0
19/09:30am NW 4 6 - - - - 10 Partly cloudy - 13.2 1016.5 0.0
19/09:00am WSW 4 8 - - - - 10 Mostly clear - 12.5 1016.5 0.0
19/08:30am W 5 7 - - - - 10 Partly cloudy - 11.5 1016.5 0.0
19/08:00am W 5 7 - - - - 10 Cloudy - 11.0 1016.4 0.0
19/07:30am W 5 8 - - - - 10 Partly cloudy - 10.3 1016.2 0.0
19/07:00am WSW 4 6 - - - - 10 Partly cloudy - 9.8 1015.8 0.0
19/06:30am W 5 8 - - - - 10 Partly cloudy - 10.6 1015.9 0.0
19/06:00am WNW 7 13 - - - - 10 Mostly cloudy - 11.1 1015.8 0.0
19/05:30am WNW 7 11 - - - - 10 Cloudy - 11.2 1016.1 0.0
19/05:00am W 6 11 - - - - 10 Cloudy - 11.1 1016.1 0.0
19/04:30am W 7 14 - - - - 10 Partly cloudy - 11.0 1015.9 0.0
19/04:00am WSW 7 12 - - - - 10 Partly cloudy - 10.7 1016.0 0.0
19/03:30am WSW 9 16 - - - - 10 Partly cloudy - 11.0 1015.7 0.0
19/03:00am WSW 6 9 - - - - 10 Mostly clear - 9.7 1016.3 0.0
19/02:30am NNW 5 9 - - - - 10 - - 9.9 1016.8 0.0
19/02:00am N 6 9 - - - - 10 - - 10.0 1017.1 0.0
19/01:30am NW 8 15 - - - - 10 Partly cloudy - 10.5 1017.8 0.0
19/01:00am WNW 9 15 - - - - 10 Cloudy - 10.7 1017.9 0.0
19/12:30am NW 7 11 - - - - 10 Cloudy - 10.5 1018.9 0.0
19/12:00am WNW 8 17 - - - - 10 Cloudy - 10.5 1019.5 0.0
 
Date/Time
EST
Wind Sea
Height
m
Swell Vis
km
Cloud Weather Temp
°C
Press
MSL
hPa
Rain since
9am
mm
Dir  Spd
kts
Gust
kts
Height
m
Period
s
Dir
18/11:30pm WNW 9 16 - - - - 10 Cloudy - 10.3 1020.2 0.0
18/11:00pm WNW 9 15 - - - - 10 Partly cloudy - 10.4 1020.5 0.0
18/10:30pm WNW 7 10 - - - - 10 Cloudy - 10.2 1021.2 0.0
18/10:00pm NW 6 11 - - - - 10 - - 10.1 1021.9 0.0
18/09:30pm NW 6 10 - - - - 10 - - 10.0 1022.4 0.0
18/09:00pm WNW 6 11 - - - - 10 Cloudy - 9.9 1022.5 0.0
18/08:30pm WNW 6 9 - - - - 10 Cloudy - 9.6 1022.9 0.0
18/08:00pm W 5 9 - - - - 10 Cloudy - 9.4 1023.6 0.0
18/07:30pm W 10 18 - - - - 10 Partly cloudy - 9.6 1023.8 0.0
18/07:00pm WNW 11 16 - - - - 10 - - 9.4 1024.3 0.0
18/06:30pm W 9 18 - - - - 10 - - 9.5 1024.8 0.0
18/06:00pm W 9 14 - - - - 10 Cloudy - 9.7 1025.2 0.0
18/05:30pm WNW 8 13 - - - - 10 - - 9.6 1025.6 0.0
18/05:00pm WNW 7 11 - - - - 10 Partly cloudy - 9.8 1025.9 0.0
18/04:30pm WNW 7 13 - - - - 10 - - 10.6 1026.0 0.0
18/04:00pm WNW 7 12 - - - - 10 - - 11.4 1026.4 0.0
18/03:30pm NW 6 11 - - - - 10 - - 11.8 1026.9 0.0
18/03:00pm NNE 7 9 - - - - 10 Partly cloudy - 12.1 1027.1 0.0
18/02:30pm N 4 7 - - - - 10 - - 12.7 1027.3 0.0
18/02:00pm NNE 5 7 - - - - 10 - - 12.6 1028.1 0.0
18/01:30pm NW 3 5 - - - - 10 - - 12.5 1028.4 0.0
18/01:00pm NNW 4 6 - - - - 10 - - 12.2 1029.1 0.0
18/12:30pm SW 3 7 - - - - 10 - - 11.9 1029.8 0.0
18/12:00pm SW 4 7 - - - - 10 Partly cloudy - 11.6 1030.3 0.0
18/11:30am SSW 5 9 - - - - 10 - - 11.6 1030.8 0.0
18/11:00am SW 4 8 - - - - 10 - - 10.9 1031.0 0.0
18/10:30am SSW 3 6 - - - - 10 - - 9.9 1031.4 0.0
18/10:00am SW 3 6 - - - - 10 - - 9.2 1031.5 0.0
18/09:30am S 6 13 - - - - 10 - - 9.1 1031.1 0.0
18/09:00am SSW 7 12 - - - - 10 Partly cloudy - 8.6 1031.5 0.0
18/08:30am SSW 6 11 - - - - 10 - - 7.3 1031.7 0.0
18/08:00am SSW 6 13 - - - - 10 - - 6.8 1031.7 0.0
18/07:30am SSW 5 8 - - - - 10 - - 6.0 1031.1 0.0
18/07:00am SSW 5 10 - - - - 10 - - 6.1 1031.0 0.0
18/06:30am SSW 6 10 - - - - 10 - - 6.4 1030.8 0.0
18/06:00am SSW 5 9 - - - - 10 Mostly clear - 6.3 1030.3 0.0
18/05:30am SSW 5 7 - - - - 10 Partly cloudy - 6.5 1030.2 0.0
18/05:00am SSW 5 9 - - - - 10 Partly cloudy - 6.9 1029.8 0.0
18/04:30am S 5 13 - - - - 10 Partly cloudy - 7.0 1029.4 0.0
18/04:00am SSW 5 9 - - - - 10 - - 6.9 1028.9 0.0
18/03:30am SSW 5 13 - - - - 10 - - 7.1 1028.5 0.0
18/03:00am SSW 7 13 - - - - 10 - - 7.4 1028.4 0.0
18/02:30am SSW 9 18 - - - - 10 - - 7.5 1028.2 0.0
18/02:00am SSW 10 20 - - - - 10 Partly cloudy - 7.3 1028.1 0.0
18/01:30am S 9 22 - - - - 10 Partly cloudy - 7.6 1028.2 0.0
18/01:00am S 8 19 - - - - 10 Partly cloudy - 7.2 1027.9 0.0
18/12:30am S 11 21 - - - - 10 - - 7.4 1027.9 0.0
18/12:00am S 7 14 - - - - 10 Mostly clear - 6.8 1027.6 0.0
 
Date/Time
EST
Wind Sea
Height
m
Swell Vis
km
Cloud Weather Temp
°C
Press
MSL
hPa
Rain since
9am
mm
Dir  Spd
kts
Gust
kts
Height
m
Period
s
Dir
17/11:30pm S 9 16 - - - - 10 - - 7.1 1027.5 0.0
17/11:00pm S 9 19 - - - - 10 - - 7.0 1027.3 0.0
17/10:30pm SSW 9 17 - - - - 10 - - 7.2 1027.0 0.0
17/10:00pm SSW 6 13 - - - - 10 - - 6.9 1027.0 0.0
17/09:30pm S 8 17 - - - - 10 - - 7.3 1026.7 0.0
17/09:00pm SSW 9 18 - - - - 10 - - 7.7 1026.0 0.0
17/08:30pm SSW 7 15 - - - - 10 - - 7.8 1025.6 0.0
17/08:00pm SSW 7 14 - - - - 10 - - 8.1 1025.1 0.0
17/07:30pm SSW 9 17 - - - - 10 - - 8.6 1024.5 0.0
17/07:00pm SSW 8 17 - - - - 10 Partly cloudy - 9.0 1024.1 0.0
17/06:30pm SSW 6 15 - - - - 10 Partly cloudy - 9.8 1023.4 0.0
17/06:00pm SSW 9 19 - - - - 10 Cloudy - 10.4 1022.8 0.0
17/05:30pm SSW 5 9 - - - - 10 Partly cloudy - 10.4 1021.9 0.0
17/05:00pm SSW 5 8 - - - - 10 - - 10.2 1021.3 0.0
17/04:30pm SSW 3 7 - - - - 10 - - 11.0 1020.9 0.0

Other formats

Comma delimited format used in spreadsheet applications
http://www.bom.gov.au/fwo/IDT60701/IDT60701.95981.axf

JavaScript Object Notation format (JSON) in row-major order
http://www.bom.gov.au/fwo/IDT60701/IDT60701.95981.json

Data quality

Most of these data are generated automatically and are frequently updated. Quality checks on data are not normally performed. It is possible for incorrect values to appear. Refer to information at About Latest Weather Observations and please check the disclaimer before using these data.